Time;durP1;ratioP1;P1;durP2;ratioP2;P2;SDS_P1;SDS_P2;PMS_P1;PMS_P2;Temp;Humidity;BMP_temperature;BMP_pressure;BME280_temperature;BME280_humidity;BME280_pressure;Samples;Min_cycle;Max_cycle;Signal;HPM_P1;HPM_P2
2022/07/14 00:00:16;;;;;;;11.68;3.63;;;;;;;15.75;86.17;102025.34;5003344;28;20044;-70
2022/07/14 00:02:41;;;;;;;14.07;4.03;;;;;;;15.73;86.25;102028.38;5005917;28;20087;-71
2022/07/14 00:05:07;;;;;;;12.52;5.00;;;;;;;15.67;86.67;102028.47;5000811;28;20031;-71
2022/07/14 00:07:33;;;;;;;13.90;4.28;;;;;;;15.65;87.02;102027.84;5002425;28;20036;-71
2022/07/14 00:09:58;;;;;;;15.02;5.30;;;;;;;15.66;86.85;102029.53;5003330;28;20045;-71
2022/07/14 00:12:23;;;;;;;14.45;4.20;;;;;;;15.62;86.67;102023.59;5005283;28;20040;-71
2022/07/14 00:14:49;;;;;;;12.13;3.95;;;;;;;15.55;86.90;102022.84;5004796;28;20242;-71
2022/07/14 00:17:14;;;;;;;13.73;4.28;;;;;;;15.45;87.54;102023.41;5005939;28;20040;-71
2022/07/14 00:19:39;;;;;;;14.25;4.40;;;;;;;15.47;87.47;102023.19;5005053;28;20124;-71
2022/07/14 00:22:04;;;;;;;14.93;4.57;;;;;;;15.44;88.33;102026.41;5002816;28;20380;-71
2022/07/14 00:24:30;;;;;;;14.18;4.97;;;;;;;15.43;88.48;102020.03;5006055;28;20050;-71
2022/07/14 00:26:55;;;;;;;14.25;4.97;;;;;;;15.47;88.09;102021.25;5003223;28;20409;-71
2022/07/14 00:29:20;;;;;;;12.55;3.95;;;;;;;15.45;87.82;102009.56;5005602;28;20033;-72
2022/07/14 00:31:46;;;;;;;11.00;4.47;;;;;;;15.34;87.95;102010.38;5004943;28;20545;-71
2022/07/14 00:34:12;;;;;;;19.38;5.53;;;;;;;15.28;88.30;102003.00;5004467;28;20022;-71
2022/07/14 00:36:37;;;;;;;15.93;4.05;;;;;;;15.24;88.88;101999.00;5003544;28;20057;-72
2022/07/14 00:39:03;;;;;;;15.40;4.25;;;;;;;15.21;89.03;102011.41;5002916;28;20092;-72
2022/07/14 00:41:28;;;;;;;14.15;5.50;;;;;;;15.20;89.07;102008.84;5005209;28;20058;-71
2022/07/14 00:43:53;;;;;;;15.95;4.45;;;;;;;15.20;89.21;102011.63;5002280;28;20037;-71
2022/07/14 00:46:18;;;;;;;15.00;4.35;;;;;;;15.22;89.25;102012.25;5003757;28;20017;-71
2022/07/14 00:48:44;;;;;;;14.93;4.28;;;;;;;15.15;88.86;102005.94;5003863;28;20038;-71
2022/07/14 00:51:09;;;;;;;11.65;4.38;;;;;;;15.13;89.46;102008.09;5004685;28;20049;-71
2022/07/14 00:53:34;;;;;;;18.40;6.32;;;;;;;15.10;89.61;102016.84;5002737;28;20121;-72
2022/07/14 00:55:59;;;;;;;14.10;5.07;;;;;;;15.02;89.55;102002.28;5003381;28;20179;-71
2022/07/14 00:58:25;;;;;;;15.88;4.57;;;;;;;15.07;90.10;102003.50;5004243;28;20537;-72
2022/07/14 01:00:50;;;;;;;18.48;5.20;;;;;;;15.03;89.87;101998.44;5003023;28;20032;-72
2022/07/14 01:03:15;;;;;;;20.92;5.53;;;;;;;15.00;90.12;102009.97;5002631;28;20428;-71
2022/07/14 01:05:41;;;;;;;19.33;5.28;;;;;;;15.00;90.08;102015.50;5003900;22;20054;-72
2022/07/14 01:08:07;;;;;;;15.80;4.68;;;;;;;14.98;90.60;102011.28;4984100;28;20492;-71
2022/07/14 01:10:33;;;;;;;12.45;4.80;;;;;;;15.03;90.40;102009.50;4998106;28;20357;-70
2022/07/14 01:13:00;;;;;;;16.42;5.55;;;;;;;15.08;91.02;102014.34;5004312;28;20480;-71
2022/07/14 01:15:26;;;;;;;16.98;6.15;;;;;;;15.10;90.60;102027.94;4998516;28;20038;-72
2022/07/14 01:17:51;;;;;;;19.67;5.30;;;;;;;15.05;90.52;102023.09;4985616;28;20041;-70
2022/07/14 01:20:17;;;;;;;17.40;5.90;;;;;;;15.07;90.90;102025.63;4984625;28;20030;-71
2022/07/14 01:22:44;;;;;;;18.25;5.70;;;;;;;15.04;90.46;102035.22;4985544;28;20019;-71
2022/07/14 01:25:10;;;;;;;13.32;5.40;;;;;;;14.99;90.37;102040.63;4984159;28;20037;-71
2022/07/14 01:27:36;;;;;;;19.73;5.70;;;;;;;14.97;90.92;102035.31;5005180;28;20115;-71
2022/07/14 01:30:03;;;;;;;16.33;6.15;;;;;;;15.02;91.30;102037.41;5001765;28;20484;-71
2022/07/14 01:32:28;;;;;;;18.65;5.43;;;;;;;15.07;91.08;102048.63;4990614;28;20176;-71
2022/07/14 01:34:54;;;;;;;17.98;6.30;;;;;;;15.14;90.80;102048.53;5003689;28;20112;-71
2022/07/14 01:37:20;;;;;;;18.98;6.97;;;;;;;15.13;91.02;102055.97;4992983;28;20492;-71
2022/07/14 01:39:45;;;;;;;17.95;6.40;;;;;;;15.20;91.08;102055.91;4985558;28;20037;-70
2022/07/14 01:42:11;;;;;;;17.70;6.15;;;;;;;15.18;90.85;102049.75;4984262;28;20078;-71
2022/07/14 01:44:37;;;;;;;19.20;6.20;;;;;;;15.13;90.77;102038.53;4984066;28;20432;-71
2022/07/14 01:47:02;;;;;;;17.77;7.15;;;;;;;15.14;90.95;102038.31;4997567;28;20064;-71
2022/07/14 01:49:28;;;;;;;18.75;6.80;;;;;;;15.07;91.09;102042.25;4995973;28;20060;-71
2022/07/14 01:51:53;;;;;;;18.30;6.30;;;;;;;15.08;91.36;102038.41;4986740;28;20022;-70
2022/07/14 01:54:19;;;;;;;23.35;7.43;;;;;;;15.04;91.05;102035.22;4983892;28;20097;-70
2022/07/14 01:56:44;;;;;;;16.70;6.50;;;;;;;15.03;91.57;102031.63;4985131;28;20030;-71
2022/07/14 01:59:10;;;;;;;15.90;6.30;;;;;;;15.02;91.37;102035.47;4991434;28;20033;-71
2022/07/14 02:01:41;;;;;;;17.52;6.93;;;;;;;14.99;91.43;102035.09;4987210;28;20030;-72
2022/07/14 02:04:12;;;;;;;27.25;7.40;;;;;;;14.95;91.55;102036.63;4985022;28;20416;-72
2022/07/14 02:06:43;;;;;;;16.98;7.13;;;;;;;14.92;91.34;102031.56;4983179;28;20385;-71
2022/07/14 02:09:08;;;;;;;17.98;6.45;;;;;;;14.85;91.72;102020.59;4998569;28;20120;-71
2022/07/14 02:14:17;;;;;;;21.05;7.22;;;;;;;14.82;91.49;102025.72;4979049;28;20045;-72
2022/07/14 02:16:43;;;;;;;16.25;7.55;;;;;;;14.78;91.57;102025.34;5004506;28;20026;-72
2022/07/14 02:19:08;;;;;;;20.63;7.75;;;;;;;14.74;91.63;102024.94;5004395;28;20100;-71
2022/07/14 02:21:34;;;;;;;21.33;7.45;;;;;;;14.72;91.72;102029.03;4997844;28;20034;-71
2022/07/14 02:23:59;;;;;;;20.38;7.15;;;;;;;14.66;91.42;102019.72;5000170;28;20194;-70
2022/07/14 02:26:25;;;;;;;20.13;7.65;;;;;;;14.65;91.73;102019.94;4983888;28;20380;-72
2022/07/14 02:28:50;;;;;;;16.60;7.57;;;;;;;14.58;91.72;102021.94;4983018;28;20022;-70
2022/07/14 02:31:16;;;;;;;21.92;8.02;;;;;;;14.59;91.72;102031.91;4985926;28;20109;-71
2022/07/14 02:33:41;;;;;;;20.10;6.95;;;;;;;14.54;91.96;102027.06;5003167;28;20032;-72
2022/07/14 02:36:07;;;;;;;16.13;7.45;;;;;;;14.50;91.67;102029.47;4995204;28;20113;-71
2022/07/14 02:38:33;;;;;;;23.25;7.75;;;;;;;14.50;92.38;102035.00;4994133;28;20216;-72
2022/07/14 02:40:58;;;;;;;21.00;7.47;;;;;;;14.46;91.64;102025.44;4996395;28;20134;-72
2022/07/14 02:43:24;;;;;;;22.42;8.77;;;;;;;14.45;92.29;102029.28;4991134;28;20120;-72
2022/07/14 02:45:49;;;;;;;21.63;8.15;;;;;;;14.43;92.30;102025.88;4984638;28;20031;-72
2022/07/14 02:48:16;;;;;;;24.08;8.68;;;;;;;14.40;92.65;102025.50;4985306;28;20472;-71
2022/07/14 02:50:41;;;;;;;15.38;7.22;;;;;;;14.34;91.79;102027.22;4986069;28;20076;-73
2022/07/14 02:53:07;;;;;;;21.92;8.75;;;;;;;14.31;91.26;102022.19;5000035;28;20148;-72
2022/07/14 02:55:36;;;;;;;21.77;8.23;;;;;;;14.24;91.18;102015.84;4991134;28;20093;-71
2022/07/14 02:58:01;;;;;;;17.23;7.95;;;;;;;14.13;91.25;102019.34;4984633;28;20057;-70
2022/07/14 03:00:27;;;;;;;19.65;7.30;;;;;;;14.02;91.58;102020.94;4985367;28;20506;-72
2022/07/14 03:02:54;;;;;;;21.83;8.25;;;;;;;13.93;92.24;102009.31;5001558;28;20030;-73
2022/07/14 03:05:19;;;;;;;21.63;8.15;;;;;;;13.86;92.66;102007.69;4987584;28;20038;-70
2022/07/14 03:07:44;;;;;;;17.42;7.32;;;;;;;13.85;92.42;102006.84;4990201;28;20444;-72
2022/07/14 03:10:10;;;;;;;17.92;7.30;;;;;;;13.80;92.80;102003.06;4982097;28;20049;-73
2022/07/14 03:12:35;;;;;;;18.80;8.48;;;;;;;13.80;92.65;102003.91;4987528;28;20522;-72
2022/07/14 03:15:01;;;;;;;14.43;6.40;;;;;;;13.75;92.95;101995.44;5003387;28;20029;-71
2022/07/14 03:17:26;;;;;;;19.05;7.85;;;;;;;13.74;93.23;101991.00;5002954;28;20120;-72
2022/07/14 03:19:52;;;;;;;19.55;8.02;;;;;;;13.69;93.36;101988.06;4999183;28;20631;-72
2022/07/14 03:22:17;;;;;;;21.75;8.45;;;;;;;13.68;93.52;101986.34;4984059;28;20385;-73
2022/07/14 03:24:42;;;;;;;18.08;7.88;;;;;;;13.64;93.49;101987.88;4987356;28;20043;-70
2022/07/14 03:27:08;;;;;;;17.33;8.13;;;;;;;13.64;93.80;101983.22;5000592;28;20037;-70
2022/07/14 03:29:33;;;;;;;19.90;9.02;;;;;;;13.63;94.29;101980.66;5005815;28;20033;-70
2022/07/14 03:31:58;;;;;;;21.42;7.88;;;;;;;13.63;94.43;101975.13;4986378;28;20508;-71
2022/07/14 03:34:24;;;;;;;20.38;8.63;;;;;;;13.63;93.77;101986.16;4986590;28;20472;-70
2022/07/14 03:36:49;;;;;;;20.15;8.18;;;;;;;13.60;93.88;101978.34;4986665;28;20022;-71
2022/07/14 03:39:14;;;;;;;18.17;7.60;;;;;;;13.58;93.92;101974.94;5005622;28;20142;-70
2022/07/14 03:41:39;;;;;;;20.17;8.65;;;;;;;13.55;94.08;101986.47;5006734;28;20022;-71
2022/07/14 03:44:05;;;;;;;20.02;7.45;;;;;;;13.55;94.02;101983.69;4988954;28;20488;-71
2022/07/14 03:46:30;;;;;;;21.10;7.78;;;;;;;13.60;93.56;101990.25;5006627;28;20036;-72
2022/07/14 03:48:56;;;;;;;19.30;8.15;;;;;;;13.67;93.23;101987.41;5006333;28;20095;-71
2022/07/14 03:51:21;;;;;;;15.63;7.40;;;;;;;13.64;93.25;101990.66;4990896;28;20345;-71
2022/07/14 03:53:46;;;;;;;19.17;7.85;;;;;;;13.62;93.23;101998.28;4989947;28;20089;-69
2022/07/14 03:56:11;;;;;;;16.98;8.02;;;;;;;13.60;93.05;101997.69;4998197;28;20026;-71
2022/07/14 03:58:37;;;;;;;17.50;8.13;;;;;;;13.57;92.76;101987.06;5002698;28;20049;-71
2022/07/14 04:01:03;;;;;;;19.63;7.57;;;;;;;13.51;93.05;101988.81;4995479;28;20079;-70
2022/07/14 04:03:28;;;;;;;19.02;7.80;;;;;;;13.49;93.04;101993.72;4995745;28;20022;-71
2022/07/14 04:05:53;;;;;;;18.15;7.78;;;;;;;13.45;92.68;101990.53;4992617;28;20065;-71
2022/07/14 04:08:19;;;;;;;19.25;7.28;;;;;;;13.45;93.26;101995.22;4996586;28;20453;-71
2022/07/14 04:10:44;;;;;;;19.48;8.32;;;;;;;13.47;93.59;101993.06;4986823;28;20030;-71
2022/07/14 04:13:10;;;;;;;19.98;8.75;;;;;;;13.44;93.97;101991.63;4985159;28;20030;-71
2022/07/14 04:15:37;;;;;;;19.13;8.50;;;;;;;13.46;94.17;101995.00;4993940;28;20511;-71
2022/07/14 04:18:02;;;;;;;27.20;8.73;;;;;;;13.44;93.96;101988.03;4989170;28;20042;-71
2022/07/14 04:20:28;;;;;;;23.90;7.85;;;;;;;13.47;94.14;101993.91;4989943;28;20408;-71
2022/07/14 04:22:53;;;;;;;19.60;8.55;;;;;;;13.49;94.64;101994.56;5001181;28;20036;-71
2022/07/14 04:25:18;;;;;;;23.45;8.73;;;;;;;13.49;94.74;101991.81;4995491;28;20054;-71
2022/07/14 04:27:44;;;;;;;22.40;9.75;;;;;;;13.48;94.57;101989.25;4996832;28;20113;-71
2022/07/14 04:30:11;;;;;;;23.17;8.05;;;;;;;13.48;95.05;101981.84;5004156;28;20105;-71
2022/07/14 04:32:36;;;;;;;23.70;9.37;;;;;;;13.75;95.99;101990.78;4985380;28;20026;-71
2022/07/14 04:35:03;;;;;;;21.60;9.55;;;;;;;14.09;93.77;101991.34;5002921;28;20292;-71
2022/07/14 04:37:28;;;;;;;22.70;9.18;;;;;;;14.21;92.28;101983.16;5019921;28;20029;-71
2022/07/14 04:39:54;;;;;;;20.55;8.50;;;;;;;14.24;91.59;101983.56;5003438;28;20113;-71
2022/07/14 04:42:21;;;;;;;21.27;9.70;;;;;;;14.17;91.88;101998.50;5006120;28;20026;-71
2022/07/14 04:44:46;;;;;;;24.90;9.55;;;;;;;14.07;92.08;101992.63;4986897;28;20030;-71
2022/07/14 04:47:12;;;;;;;25.45;9.40;;;;;;;14.04;92.95;101993.94;4990553;28;20060;-72
2022/07/14 04:52:21;;;;;;;27.88;10.35;;;;;;;14.03;93.00;101995.00;4985634;28;20037;-73
2022/07/14 04:54:46;;;;;;;25.08;10.18;;;;;;;14.06;92.97;101990.94;4995597;28;20031;-72
2022/07/14 04:57:12;;;;;;;30.48;10.80;;;;;;;14.05;93.63;102000.31;4985583;28;20038;-72
2022/07/14 04:59:37;;;;;;;30.20;11.27;;;;;;;14.03;93.49;101993.06;4985940;28;20034;-72
2022/07/14 05:02:04;;;;;;;27.23;11.35;;;;;;;14.08;93.52;101997.94;4992774;28;20188;-71
2022/07/14 05:04:29;;;;;;;22.73;10.82;;;;;;;14.08;93.59;101997.09;4985507;28;20042;-72
2022/07/14 05:06:55;;;;;;;29.30;10.40;;;;;;;14.10;93.49;102003.25;4985027;28;20046;-70
2022/07/14 05:09:23;;;;;;;31.17;9.90;;;;;;;14.10;93.09;102004.09;4985946;28;20046;-72
2022/07/14 05:11:49;;;;;;;33.85;12.00;;;;;;;14.08;93.17;102011.75;4986303;28;20449;-72
2022/07/14 05:14:15;;;;;;;21.95;10.68;;;;;;;14.07;93.54;102006.44;4986067;28;20042;-71
2022/07/14 05:16:40;;;;;;;25.80;10.55;;;;;;;14.01;93.96;102005.44;4996747;28;20030;-71
2022/07/14 05:19:06;;;;;;;26.33;10.82;;;;;;;14.08;94.54;102010.91;5004596;28;20033;-71
2022/07/14 05:21:31;;;;;;;25.92;11.40;;;;;;;14.12;94.83;102009.38;4983511;28;20029;-71
2022/07/14 05:23:57;;;;;;;25.02;11.27;;;;;;;14.15;94.33;102008.94;5000423;28;20452;-71
2022/07/14 05:26:23;;;;;;;31.80;12.70;;;;;;;14.18;94.34;102000.19;5004931;28;20021;-71
2022/07/14 05:28:48;;;;;;;31.80;12.35;;;;;;;14.21;94.68;102006.09;5003297;28;20037;-72
2022/07/14 05:31:14;;;;;;;30.40;12.07;;;;;;;14.26;94.72;102002.66;4995542;28;20116;-71
2022/07/14 05:33:40;;;;;;;31.67;12.43;;;;;;;14.26;94.84;102002.66;5001534;28;20022;-72
2022/07/14 05:36:06;;;;;;;29.20;12.00;;;;;;;14.38;94.21;102009.13;4985152;28;20706;-71
2022/07/14 05:38:31;;;;;;;30.58;11.80;;;;;;;14.46;93.22;102010.75;4984149;28;20631;-70
2022/07/14 05:40:59;;;;;;;30.95;11.10;;;;;;;14.52;92.90;102009.88;4984344;28;20031;-70
2022/07/14 05:43:25;;;;;;;;;;;;;;;14.68;91.41;102014.78;4984367;28;20038;-70
2022/07/14 05:45:50;;;;;;;34.08;12.20;;;;;;;14.69;90.90;102012.88;4992943;28;20000;-70
2022/07/14 05:48:15;;;;;;;35.00;11.20;;;;;;;14.74;90.99;102013.03;4998942;28;20415;-70
2022/07/14 05:50:41;;;;;;;26.45;11.85;;;;;;;14.76;91.43;102013.66;5004815;28;20427;-70
2022/07/14 05:53:06;;;;;;;29.23;10.38;;;;;;;14.79;91.57;102007.66;5003639;28;20030;-70
2022/07/14 05:55:31;;;;;;;32.53;11.23;;;;;;;14.86;91.16;102005.66;4991249;28;20420;-71
2022/07/14 05:57:56;;;;;;;32.05;11.55;;;;;;;14.96;91.43;102008.75;4992512;28;20034;-70
2022/07/14 06:00:22;;;;;;;26.55;11.27;;;;;;;15.03;91.89;102011.41;4983575;28;20023;-71
2022/07/14 06:02:47;;;;;;;35.50;12.18;;;;;;;15.19;90.23;102012.69;4990629;28;20121;-70
2022/07/14 06:05:12;;;;;;;29.87;11.57;;;;;;;15.20;90.08;102006.91;4984614;28;20131;-70
2022/07/14 06:07:38;;;;;;;34.92;12.07;;;;;;;15.25;89.33;102009.84;4997587;28;20324;-70
2022/07/14 06:10:05;;;;;;;33.55;12.48;;;;;;;15.25;89.72;102003.47;4997794;28;20034;-70
2022/07/14 06:12:31;;;;;;;28.85;11.80;;;;;;;15.34;88.54;102002.06;4988620;28;20037;-70
2022/07/14 06:14:57;;;;;;;30.02;12.13;;;;;;;15.45;86.51;102006.78;4990970;28;20376;-70
2022/07/14 06:17:22;;;;;;;35.05;12.65;;;;;;;15.39;88.01;102002.19;4986381;28;20030;-70
2022/07/14 06:19:47;;;;;;;30.13;11.68;;;;;;;15.46;87.64;101993.78;4983910;28;20113;-70
2022/07/14 06:22:13;;;;;;;32.17;13.18;;;;;;;15.52;86.98;101998.41;4983525;28;20023;-71
2022/07/14 06:24:39;;;;;;;35.47;14.40;;;;;;;15.63;85.32;102000.41;4984207;28;20030;-71
2022/07/14 06:27:04;;;;;;;31.73;14.98;;;;;;;15.60;86.66;101994.44;4984724;28;20030;-70
2022/07/14 06:29:30;;;;;;;33.67;14.90;;;;;;;15.77;83.69;101999.13;4984558;28;20369;-71
2022/07/14 06:31:55;;;;;;;33.80;15.63;;;;;;;15.74;86.03;102001.50;4982107;28;20461;-70
2022/07/14 06:34:24;;;;;;;32.72;15.18;;;;;;;15.88;82.86;102008.53;4987119;28;20369;-71
2022/07/14 06:36:49;;;;;;;34.53;12.93;;;;;;;15.86;82.84;102007.91;5003428;28;20026;-70
2022/07/14 06:39:15;;;;;;;33.53;12.98;;;;;;;15.91;83.54;102010.81;4991289;28;20041;-70
2022/07/14 06:41:41;;;;;;;32.78;13.75;;;;;;;16.00;84.27;102009.38;4984369;28;20708;-70
2022/07/14 06:44:06;;;;;;;26.08;10.98;;;;;;;16.07;84.34;102018.44;4998494;28;20027;-69
2022/07/14 06:46:32;;;;;;;26.70;10.43;;;;;;;16.16;81.54;102020.84;4982992;28;20103;-71
2022/07/14 06:48:58;;;;;;;34.70;10.77;;;;;;;16.27;79.62;102015.34;4984047;28;20035;-70
2022/07/14 06:51:24;;;;;;;29.75;10.40;;;;;;;16.26;81.06;102019.16;4981930;28;20026;-72
2022/07/14 06:53:49;;;;;;;28.13;9.35;;;;;;;16.31;81.60;102012.91;4984708;28;20029;-70
2022/07/14 06:56:14;;;;;;;30.20;9.32;;;;;;;16.50;77.87;102013.63;4984067;28;20443;-71
2022/07/14 06:58:40;;;;;;;26.77;9.93;;;;;;;16.49;78.25;102006.41;4988055;28;20472;-71
2022/07/14 07:01:05;;;;;;;27.38;9.10;;;;;;;16.45;79.90;102003.28;4986277;28;20041;-70
2022/07/14 07:03:30;;;;;;;29.50;8.73;;;;;;;16.51;78.92;101999.53;4988285;28;20022;-70
2022/07/14 07:08:40;;;;;;;20.52;8.05;;;;;;;16.61;77.43;102010.84;4987604;28;20048;-70
2022/07/14 07:11:05;;;;;;;26.38;8.25;;;;;;;16.70;78.15;102007.72;4988506;28;20026;-69
2022/07/14 07:13:30;;;;;;;24.13;10.43;;;;;;;16.75;78.80;102005.09;4985153;28;20523;-71
2022/07/14 07:15:56;;;;;;;26.50;9.40;;;;;;;16.81;77.82;102004.94;4983676;28;20070;-70
2022/07/14 07:18:21;;;;;;;28.42;9.50;;;;;;;16.94;77.85;102001.06;4988013;28;20389;-71
2022/07/14 07:20:46;;;;;;;28.73;9.73;;;;;;;17.06;77.38;102004.66;4990739;28;20392;-70
2022/07/14 07:23:11;;;;;;;26.02;8.57;;;;;;;17.17;75.59;101999.31;4984515;28;20037;-70
2022/07/14 07:25:37;;;;;;;26.23;8.70;;;;;;;17.14;76.33;102002.59;4989372;28;20108;-70
2022/07/14 07:28:02;;;;;;;18.42;8.95;;;;;;;17.24;76.64;102003.63;4988932;28;20031;-69
2022/07/14 07:30:28;;;;;;;23.05;8.85;;;;;;;17.31;74.90;102003.47;4986868;28;20037;-70
2022/07/14 07:32:54;;;;;;;22.75;8.65;;;;;;;17.41;77.86;101995.34;4986253;28;20112;-70
2022/07/14 07:35:19;;;;;;;21.77;8.88;;;;;;;17.53;75.27;101986.94;4985016;28;20034;-70
2022/07/14 07:37:45;;;;;;;24.98;8.63;;;;;;;17.61;74.03;101981.00;4986639;28;20456;-72
2022/07/14 07:40:11;;;;;;;20.52;8.35;;;;;;;17.75;72.20;101974.06;4984637;28;20034;-71
2022/07/14 07:42:36;;;;;;;17.65;8.15;;;;;;;17.76;71.78;101972.97;4983584;28;20030;-71
2022/07/14 07:45:02;;;;;;;26.85;8.82;;;;;;;17.80;72.89;101984.44;4988292;28;20022;-70
2022/07/14 07:47:28;;;;;;;24.83;9.38;;;;;;;17.91;73.28;101988.22;4986758;28;20082;-69
2022/07/14 07:49:54;;;;;;;20.35;8.15;;;;;;;18.07;73.98;101979.88;4985999;28;20050;-69
2022/07/14 07:52:20;;;;;;;22.65;8.38;;;;;;;18.25;72.72;101975.13;4988807;28;20030;-71
2022/07/14 07:54:46;;;;;;;19.67;7.68;;;;;;;18.36;72.38;101968.66;4987074;28;20073;-71
2022/07/14 07:57:12;;;;;;;17.17;6.25;;;;;;;18.34;64.92;101970.81;4987840;28;20568;-72
2022/07/14 07:59:37;;;;;;;19.45;7.25;;;;;;;18.37;67.78;101978.66;4988451;28;20037;-71
2022/07/14 08:02:03;;;;;;;20.58;8.30;;;;;;;18.38;69.97;101972.00;4987464;28;20412;-71
2022/07/14 08:04:28;;;;;;;21.00;8.98;;;;;;;18.47;67.16;101967.69;4985553;28;20127;-72
2022/07/14 08:06:53;;;;;;;22.40;8.07;;;;;;;18.51;69.20;101963.31;4977275;28;20042;-71
2022/07/14 08:09:19;;;;;;;19.48;7.90;;;;;;;18.67;67.74;101956.00;4985251;28;20304;-71
2022/07/14 08:11:44;;;;;;;18.70;7.78;;;;;;;18.79;67.03;101951.19;4986531;28;20093;-71
2022/07/14 08:16:55;;;;;;;17.08;6.32;;;;;;;19.36;65.75;101947.97;4982922;28;20116;-69
2022/07/14 08:19:21;;;;;;;14.93;5.82;;;;;;;19.52;60.70;101946.16;4984415;28;20056;-69
2022/07/14 08:21:46;;;;;;;14.75;5.43;;;;;;;19.49;63.50;101941.09;4983508;28;20428;-70
2022/07/14 08:24:11;;;;;;;15.75;5.47;;;;;;;19.63;64.03;101942.38;4987977;28;20029;-69
2022/07/14 08:26:37;;;;;;;16.38;5.78;;;;;;;19.68;63.11;101938.81;4984614;28;20029;-69
2022/07/14 08:29:02;;;;;;;16.90;5.55;;;;;;;19.67;63.72;101935.19;4983392;28;20480;-69
2022/07/14 08:31:27;;;;;;;16.67;4.75;;;;;;;19.64;63.30;101937.66;4991343;28;20027;-69
2022/07/14 08:33:52;;;;;;;12.55;5.45;;;;;;;19.60;61.71;101931.75;4984758;28;20058;-69
2022/07/14 08:36:18;;;;;;;13.53;4.93;;;;;;;19.66;63.51;101929.84;4981486;28;20023;-69
2022/07/14 08:38:43;;;;;;;16.60;4.93;;;;;;;19.61;63.11;101927.84;4988770;28;20718;-69
2022/07/14 08:41:10;;;;;;;17.17;5.40;;;;;;;19.59;62.56;101930.09;4983963;28;20035;-69
2022/07/14 08:43:36;;;;;;;17.35;5.25;;;;;;;19.74;66.29;101925.75;4981881;28;20589;-70
2022/07/14 08:46:03;;;;;;;12.75;4.45;;;;;;;19.80;63.28;101925.53;4988245;28;20113;-69
2022/07/14 08:48:29;;;;;;;13.30;4.93;;;;;;;19.87;57.84;101931.72;4985917;28;20065;-69
2022/07/14 08:50:56;;;;;;;12.60;3.90;;;;;;;19.79;57.43;101926.63;4984144;28;20504;-70
2022/07/14 08:53:22;;;;;;;14.95;4.72;;;;;;;19.76;56.79;101929.94;4974384;28;20069;-69
2022/07/14 08:55:48;;;;;;;13.93;4.10;;;;;;;19.78;60.69;101933.31;4990763;28;20027;-68
2022/07/14 08:58:13;;;;;;;9.73;3.90;;;;;;;19.95;60.39;101922.84;4984276;28;20076;-72
2022/07/14 09:00:39;;;;;;;15.00;4.90;;;;;;;20.18;59.43;101918.00;4981543;28;20027;-69
2022/07/14 09:03:05;;;;;;;16.70;4.40;;;;;;;20.43;59.44;101923.75;4983930;28;20037;-69
2022/07/14 09:05:30;;;;;;;14.63;4.07;;;;;;;20.66;59.15;101924.44;4982586;28;20042;-70
2022/07/14 09:07:57;;;;;;;10.68;3.60;;;;;;;20.79;54.65;101911.94;4983542;28;20434;-69
2022/07/14 09:10:27;;;;;;;9.68;3.40;;;;;;;20.87;55.88;101919.75;4976466;28;20037;-69
2022/07/14 09:13:12;;;;;;;13.73;3.65;;;;;;;20.84;56.02;101923.94;4981559;28;20030;-69
2022/07/14 09:15:44;;;;;;;13.13;3.70;;;;;;;20.99;58.93;101928.75;4983949;28;20030;-69
2022/07/14 09:18:12;;;;;;;17.80;4.50;;;;;;;21.12;58.02;101924.59;4988547;28;20481;-69
2022/07/14 09:20:38;;;;;;;11.35;4.28;;;;;;;21.18;54.85;101927.09;4983882;28;20022;-69
2022/07/14 09:23:05;;;;;;;13.18;4.13;;;;;;;21.04;54.60;101925.97;4980691;28;20030;-69
2022/07/14 09:25:34;;;;;;;11.65;4.20;;;;;;;21.36;56.09;101930.53;4983842;28;20033;-69
2022/07/14 09:28:00;;;;;;;16.10;5.03;;;;;;;21.49;56.03;101924.41;4983051;28;20034;-70
2022/07/14 09:30:26;;;;;;;15.52;4.32;;;;;;;21.50;54.19;101914.91;4980569;28;20026;-70
2022/07/14 09:32:58;;;;;;;17.23;4.10;;;;;;;21.67;54.16;101915.47;4968722;28;20038;-69
2022/07/14 09:35:41;;;;;;;18.50;4.03;;;;;;;22.27;55.36;101918.53;4982997;28;20088;-70
2022/07/14 09:38:19;;;;;;;11.38;2.47;;;;;;;23.42;50.58;101911.84;4982655;28;20035;-69
2022/07/14 09:40:46;;;;;;;12.98;2.80;;;;;;;25.33;44.86;101911.16;4984044;28;20417;-69
2022/07/14 09:43:13;;;;;;;12.25;2.58;;;;;;;27.16;41.35;101914.50;4984955;28;21015;-69
2022/07/14 09:45:41;;;;;;;9.75;2.45;;;;;;;28.51;37.43;101911.66;4978952;28;21006;-69
2022/07/14 09:48:08;;;;;;;;;;;;;;;30.13;40.21;101919.81;4984696;28;20116;-70
2022/07/14 09:50:50;;;;;;;10.88;2.80;;;;;;;30.97;36.06;101920.94;4983249;28;19921;-69
2022/07/14 09:53:23;;;;;;;6.13;1.70;;;;;;;31.43;31.40;101924.81;4982840;28;20045;-70
2022/07/14 09:55:56;;;;;;;9.70;2.50;;;;;;;31.62;30.32;101918.59;4984044;28;20050;-70
2022/07/14 09:58:34;;;;;;;8.90;1.90;;;;;;;32.50;28.31;101919.38;4983673;28;20489;-71
2022/07/14 10:01:08;;;;;;;7.13;2.35;;;;;;;33.52;28.69;101923.06;4977803;28;20035;-71
2022/07/14 10:03:36;;;;;;;9.60;2.08;;;;;;;34.04;26.60;101922.13;4993427;28;20410;-70
2022/07/14 10:06:03;;;;;;;;;;;;;;;35.52;30.95;101925.38;4988663;28;20045;-71
2022/07/14 10:08:30;;;;;;;10.73;2.50;;;;;;;33.02;29.75;101918.66;4993109;28;19997;-69
2022/07/14 10:10:58;;;;;;;12.82;2.38;;;;;;;30.50;30.98;101920.16;4985574;28;20057;-70
2022/07/14 10:13:24;;;;;;;9.18;2.00;;;;;;;28.59;34.33;101923.00;4978735;28;20082;-70
2022/07/14 10:15:52;;;;;;;6.50;1.90;;;;;;;28.82;35.64;101928.56;4983226;28;20105;-70
2022/07/14 10:18:20;;;;;;;9.43;2.35;;;;;;;30.19;32.75;101923.28;4983763;28;20062;-71
2022/07/14 10:20:51;;;;;;;9.43;2.47;;;;;;;29.61;34.34;101933.22;4984693;28;20054;-68
2022/07/14 10:23:18;;;;;;;10.23;2.25;;;;;;;29.57;36.36;101929.38;4995679;28;20109;-70
2022/07/14 10:25:46;;;;;;;9.32;2.47;;;;;;;31.06;33.27;101922.88;5004803;28;20056;-70
2022/07/14 10:28:11;;;;;;;6.68;1.60;;;;;;;30.75;33.06;101924.06;4984341;28;20080;-70
2022/07/14 10:30:58;;;;;;;8.25;2.00;;;;;;;30.05;32.94;101928.28;4985165;28;20125;-71
2022/07/14 10:33:40;;;;;;;5.30;1.52;;;;;;;29.18;33.54;101931.16;4992826;28;20065;-71
2022/07/14 10:36:19;;;;;;;5.30;1.50;;;;;;;28.11;36.30;101929.38;4988001;28;20022;-72
2022/07/14 10:38:54;;;;;;;7.85;2.00;;;;;;;27.46;33.87;101929.06;4989338;28;20034;-71
2022/07/14 10:41:44;;;;;;;10.25;2.17;;;;;;;27.41;37.15;101932.84;4986513;28;20053;-71
2022/07/14 10:44:16;;;;;;;9.43;1.95;;;;;;;29.35;32.10;101925.53;4988802;28;20080;-71
2022/07/14 10:46:44;;;;;;;5.75;1.83;;;;;;;30.50;29.71;101923.00;4987802;28;20089;-70
2022/07/14 10:49:12;;;;;;;6.85;2.08;;;;;;;30.44;29.01;101921.53;4988594;28;20037;-71
2022/07/14 10:51:50;;;;;;;6.97;1.73;;;;;;;30.31;33.47;101914.88;4998094;28;20396;-71
2022/07/14 10:54:16;;;;;;;7.75;2.13;;;;;;;29.21;33.50;101919.19;4999333;28;20030;-67
2022/07/14 10:56:44;;;;;;;8.25;2.00;;;;;;;28.16;35.66;101917.94;4988994;28;20050;-70
2022/07/14 10:59:28;;;;;;;7.72;2.33;;;;;;;28.07;36.02;101913.41;4988427;28;20034;-71
2022/07/14 11:02:14;;;;;;;7.35;1.98;;;;;;;27.50;36.89;101916.81;5000856;28;20060;-70
2022/07/14 11:04:58;;;;;;;6.33;2.20;;;;;;;27.40;38.39;101923.53;4985997;28;20100;-71
2022/07/14 11:07:51;;;;;;;7.68;1.75;;;;;;;27.53;38.36;101916.19;4987911;28;20045;-71
2022/07/14 11:10:19;;;;;;;7.43;2.03;;;;;;;27.22;35.53;101912.41;4988236;28;20185;-70
2022/07/14 11:12:59;;;;;;;6.97;1.67;;;;;;;27.26;35.07;101910.63;4991375;28;20029;-71
2022/07/14 11:15:38;;;;;;;6.93;1.67;;;;;;;27.54;37.93;101919.84;5006546;28;20065;-71
2022/07/14 11:18:18;;;;;;;8.30;1.85;;;;;;;27.60;37.36;101918.56;5001071;28;20400;-70
2022/07/14 11:20:52;;;;;;;6.15;2.03;;;;;;;27.16;37.08;101922.97;4986225;28;20492;-70
2022/07/14 11:23:21;;;;;;;9.10;2.20;;;;;;;26.53;38.12;101918.97;4986816;28;20404;-71
2022/07/14 11:25:48;;;;;;;6.03;2.10;;;;;;;26.27;36.87;101927.03;4986497;28;20057;-70